sensor_id;sensor_type;location;lat;lon;timestamp;pressure;altitude;pressure_sealevel;temperature;humidity
63096;BME280;49184;55.596;37.770;2022-09-09T00:02:22;100337.91;;;9.12;59.75
63096;BME280;49184;55.596;37.770;2022-09-09T00:04:59;100344.94;;;9.23;60.49
63096;BME280;49184;55.596;37.770;2022-09-09T00:07:48;100315.56;;;9.05;60.12
63096;BME280;49184;55.596;37.770;2022-09-09T00:13:13;100356.06;;;9.37;60.47
63096;BME280;49184;55.596;37.770;2022-09-09T00:16:19;100357.47;;;9.34;60.07
63096;BME280;49184;55.596;37.770;2022-09-09T00:19:02;100355.84;;;9.28;60.07
63096;BME280;49184;55.596;37.770;2022-09-09T00:24:08;100333.25;;;9.17;59.96
63096;BME280;49184;55.596;37.770;2022-09-09T00:26:42;100340.59;;;9.17;60.30
63096;BME280;49184;55.596;37.770;2022-09-09T00:31:40;100320.72;;;9.11;59.78
63096;BME280;49184;55.596;37.770;2022-09-09T00:34:13;100334.28;;;9.27;59.46
63096;BME280;49184;55.596;37.770;2022-09-09T00:36:41;100341.34;;;9.33;59.64
63096;BME280;49184;55.596;37.770;2022-09-09T00:39:33;100310.34;;;9.13;59.33
63096;BME280;49184;55.596;37.770;2022-09-09T00:42:15;100306.22;;;9.21;59.76
63096;BME280;49184;55.596;37.770;2022-09-09T00:47:45;100367.50;;;9.49;59.37
63096;BME280;49184;55.596;37.770;2022-09-09T00:58:38;100341.63;;;9.36;58.84
63096;BME280;49184;55.596;37.770;2022-09-09T01:01:07;100327.75;;;9.23;58.75
63096;BME280;49184;55.596;37.770;2022-09-09T01:03:38;100322.34;;;9.17;59.48
63096;BME280;49184;55.596;37.770;2022-09-09T01:06:15;100356.91;;;9.37;59.64
63096;BME280;49184;55.596;37.770;2022-09-09T01:09:10;100390.94;;;9.60;59.89
63096;BME280;49184;55.596;37.770;2022-09-09T01:12:34;100369.72;;;9.37;59.16
63096;BME280;49184;55.596;37.770;2022-09-09T01:17:15;100386.91;;;9.43;59.36
63096;BME280;49184;55.596;37.770;2022-09-09T01:21:04;100326.25;;;8.86;59.64
63096;BME280;49184;55.596;37.770;2022-09-09T01:28:39;100364.94;;;8.98;60.10
63096;BME280;49184;55.596;37.770;2022-09-09T01:31:15;100399.78;;;9.27;60.08
63096;BME280;49184;55.596;37.770;2022-09-09T01:33:46;100347.25;;;8.85;60.22
63096;BME280;49184;55.596;37.770;2022-09-09T01:37:16;100383.97;;;9.18;60.16
63096;BME280;49184;55.596;37.770;2022-09-09T01:39:24;100366.28;;;9.11;60.17
63096;BME280;49184;55.596;37.770;2022-09-09T01:41:59;100403.38;;;9.07;60.51
63096;BME280;49184;55.596;37.770;2022-09-09T01:44:26;100345.09;;;8.72;60.46
63096;BME280;49184;55.596;37.770;2022-09-09T01:49:21;100391.91;;;9.10;60.92
63096;BME280;49184;55.596;37.770;2022-09-09T01:51:52;100368.75;;;9.02;60.59
63096;BME280;49184;55.596;37.770;2022-09-09T01:54:27;100363.31;;;8.92;60.81
63096;BME280;49184;55.596;37.770;2022-09-09T01:59:54;100371.47;;;8.97;60.72
63096;BME280;49184;55.596;37.770;2022-09-09T02:02:35;100369.03;;;8.90;60.63
63096;BME280;49184;55.596;37.770;2022-09-09T02:07:41;100368.50;;;8.88;60.82
63096;BME280;49184;55.596;37.770;2022-09-09T02:10:42;100378.84;;;9.02;60.47
63096;BME280;49184;55.596;37.770;2022-09-09T02:13:21;100381.81;;;9.10;61.24
63096;BME280;49184;55.596;37.770;2022-09-09T02:15:55;100428.66;;;9.48;61.78
63096;BME280;49184;55.596;37.770;2022-09-09T02:21:18;100432.25;;;9.28;60.51
63096;BME280;49184;55.596;37.770;2022-09-09T02:23:46;100423.28;;;9.12;61.08
63096;BME280;49184;55.596;37.770;2022-09-09T02:26:15;100440.72;;;9.22;61.30
63096;BME280;49184;55.596;37.770;2022-09-09T02:28:51;100406.66;;;9.04;61.10
63096;BME280;49184;55.596;37.770;2022-09-09T02:33:54;100397.44;;;8.74;61.67
63096;BME280;49184;55.596;37.770;2022-09-09T02:36:25;100382.19;;;8.68;61.66
63096;BME280;49184;55.596;37.770;2022-09-09T02:38:53;100396.88;;;8.57;62.27
63096;BME280;49184;55.596;37.770;2022-09-09T02:41:30;100392.00;;;8.38;62.80
63096;BME280;49184;55.596;37.770;2022-09-09T02:43:58;100392.78;;;8.29;63.39
63096;BME280;49184;55.596;37.770;2022-09-09T02:54:37;100417.53;;;8.27;64.13
63096;BME280;49184;55.596;37.770;2022-09-09T02:57:25;100415.66;;;8.33;64.17
63096;BME280;49184;55.596;37.770;2022-09-09T02:59:56;100481.38;;;8.67;63.94
63096;BME280;49184;55.596;37.770;2022-09-09T03:02:23;100461.19;;;8.42;64.16
63096;BME280;49184;55.596;37.770;2022-09-09T03:04:55;100405.78;;;8.01;64.63
63096;BME280;49184;55.596;37.770;2022-09-09T03:09:50;100430.38;;;8.21;64.50
63096;BME280;49184;55.596;37.770;2022-09-09T03:12:16;100448.91;;;8.35;64.22
63096;BME280;49184;55.596;37.770;2022-09-09T03:17:11;100419.19;;;8.18;64.51
63096;BME280;49184;55.596;37.770;2022-09-09T03:19:45;100453.50;;;8.19;64.77
63096;BME280;49184;55.596;37.770;2022-09-09T03:22:12;100428.38;;;7.96;65.04
63096;BME280;49184;55.596;37.770;2022-09-09T03:24:41;100410.13;;;7.97;65.22
63096;BME280;49184;55.596;37.770;2022-09-09T03:27:07;100446.94;;;8.10;65.13
63096;BME280;49184;55.596;37.770;2022-09-09T03:29:36;100447.44;;;7.96;65.63
63096;BME280;49184;55.596;37.770;2022-09-09T03:32:04;100473.38;;;8.09;65.87
63096;BME280;49184;55.596;37.770;2022-09-09T03:34:31;100457.28;;;8.08;65.96
63096;BME280;49184;55.596;37.770;2022-09-09T03:36:58;100459.72;;;7.99;65.76
63096;BME280;49184;55.596;37.770;2022-09-09T03:39:27;100476.66;;;8.16;65.69
63096;BME280;49184;55.596;37.770;2022-09-09T03:41:53;100428.09;;;7.83;65.68
63096;BME280;49184;55.596;37.770;2022-09-09T03:44:20;100454.56;;;8.03;65.69
63096;BME280;49184;55.596;37.770;2022-09-09T03:49:15;100477.41;;;7.96;66.00
63096;BME280;49184;55.596;37.770;2022-09-09T03:51:42;100503.34;;;8.19;66.17
63096;BME280;49184;55.596;37.770;2022-09-09T03:54:11;100453.16;;;7.90;66.12
63096;BME280;49184;55.596;37.770;2022-09-09T03:56:38;100484.81;;;8.11;65.88
63096;BME280;49184;55.596;37.770;2022-09-09T03:59:08;100514.56;;;8.28;66.01
63096;BME280;49184;55.596;37.770;2022-09-09T04:01:37;100462.66;;;7.87;65.82
63096;BME280;49184;55.596;37.770;2022-09-09T04:04:03;100464.06;;;7.95;66.15
63096;BME280;49184;55.596;37.770;2022-09-09T04:06:29;100456.72;;;7.95;65.78
63096;BME280;49184;55.596;37.770;2022-09-09T04:08:56;100463.00;;;8.06;66.03
63096;BME280;49184;55.596;37.770;2022-09-09T04:11:25;100457.03;;;8.14;65.34
63096;BME280;49184;55.596;37.770;2022-09-09T04:13:53;100476.13;;;8.24;65.37
63096;BME280;49184;55.596;37.770;2022-09-09T04:16:19;100465.78;;;8.21;65.23
63096;BME280;49184;55.596;37.770;2022-09-09T04:18:46;100470.97;;;8.33;64.85
63096;BME280;49184;55.596;37.770;2022-09-09T04:21:15;100485.72;;;8.42;64.65
63096;BME280;49184;55.596;37.770;2022-09-09T04:23:42;100523.63;;;8.49;65.00
63096;BME280;49184;55.596;37.770;2022-09-09T04:26:11;100506.97;;;8.40;65.04
63096;BME280;49184;55.596;37.770;2022-09-09T04:28:38;100461.94;;;8.17;64.92
63096;BME280;49184;55.596;37.770;2022-09-09T04:31:16;100464.41;;;8.34;64.38
63096;BME280;49184;55.596;37.770;2022-09-09T04:33:45;100448.06;;;8.34;64.09
63096;BME280;49184;55.596;37.770;2022-09-09T04:36:12;100525.88;;;8.88;64.13
63096;BME280;49184;55.596;37.770;2022-09-09T04:38:38;100435.81;;;8.37;63.62
63096;BME280;49184;55.596;37.770;2022-09-09T04:41:06;100502.69;;;8.75;63.18
63096;BME280;49184;55.596;37.770;2022-09-09T04:43:34;100481.13;;;8.63;63.18
63096;BME280;49184;55.596;37.770;2022-09-09T04:46:03;100470.47;;;8.57;63.71
63096;BME280;49184;55.596;37.770;2022-09-09T04:48:30;100534.31;;;9.07;63.15
63096;BME280;49184;55.596;37.770;2022-09-09T04:51:04;100527.22;;;9.06;62.90
63096;BME280;49184;55.596;37.770;2022-09-09T04:53:32;100514.94;;;9.08;62.98
63096;BME280;49184;55.596;37.770;2022-09-09T04:56:05;100510.31;;;9.09;62.16
63096;BME280;49184;55.596;37.770;2022-09-09T04:58:37;100506.22;;;9.01;62.22
63096;BME280;49184;55.596;37.770;2022-09-09T05:01:16;100474.84;;;8.83;62.58
63096;BME280;49184;55.596;37.770;2022-09-09T05:03:45;100529.97;;;9.11;61.82
63096;BME280;49184;55.596;37.770;2022-09-09T05:06:16;100532.41;;;9.12;62.39
63096;BME280;49184;55.596;37.770;2022-09-09T05:08:46;100540.59;;;9.28;61.67
63096;BME280;49184;55.596;37.770;2022-09-09T05:11:18;100555.84;;;9.49;61.40
63096;BME280;49184;55.596;37.770;2022-09-09T05:13:46;100511.13;;;9.09;61.29
63096;BME280;49184;55.596;37.770;2022-09-09T05:16:13;100526.38;;;9.26;61.25
63096;BME280;49184;55.596;37.770;2022-09-09T05:18:41;100541.91;;;9.56;61.53
63096;BME280;49184;55.596;37.770;2022-09-09T05:21:10;100544.34;;;9.68;60.13
63096;BME280;49184;55.596;37.770;2022-09-09T05:23:36;100506.16;;;9.52;59.89
63096;BME280;49184;55.596;37.770;2022-09-09T05:26:04;100517.34;;;9.61;59.63
63096;BME280;49184;55.596;37.770;2022-09-09T05:28:31;100528.22;;;9.66;59.38
63096;BME280;49184;55.596;37.770;2022-09-09T05:31:04;100572.41;;;9.94;59.62
63096;BME280;49184;55.596;37.770;2022-09-09T05:33:32;100544.56;;;9.81;59.37
63096;BME280;49184;55.596;37.770;2022-09-09T05:36:02;100514.81;;;9.70;58.34
63096;BME280;49184;55.596;37.770;2022-09-09T05:38:30;100505.28;;;9.77;58.18
63096;BME280;49184;55.596;37.770;2022-09-09T05:40:56;100579.41;;;10.20;58.71
63096;BME280;49184;55.596;37.770;2022-09-09T05:48:35;100535.47;;;10.06;57.04
63096;BME280;49184;55.596;37.770;2022-09-09T05:51:26;100517.44;;;10.05;56.87
63096;BME280;49184;55.596;37.770;2022-09-09T05:53:57;100498.91;;;9.97;56.86
63096;BME280;49184;55.596;37.770;2022-09-09T05:56:29;100521.22;;;10.15;56.20
63096;BME280;49184;55.596;37.770;2022-09-09T05:58:58;100492.34;;;10.03;56.20
63096;BME280;49184;55.596;37.770;2022-09-09T06:01:29;100516.56;;;10.15;56.46
63096;BME280;49184;55.596;37.770;2022-09-09T06:03:57;100529.94;;;10.27;55.39
63096;BME280;49184;55.596;37.770;2022-09-09T06:06:26;100538.63;;;10.39;55.51
63096;BME280;49184;55.596;37.770;2022-09-09T06:08:56;100519.03;;;10.27;55.02
63096;BME280;49184;55.596;37.770;2022-09-09T06:11:31;100580.06;;;10.62;54.82
63096;BME280;49184;55.596;37.770;2022-09-09T06:13:59;100543.06;;;10.30;54.93
63096;BME280;49184;55.596;37.770;2022-09-09T06:16:29;100562.97;;;10.35;55.11
63096;BME280;49184;55.596;37.770;2022-09-09T06:18:56;100581.19;;;10.55;55.14
63096;BME280;49184;55.596;37.770;2022-09-09T06:21:38;100579.81;;;10.58;54.75
63096;BME280;49184;55.596;37.770;2022-09-09T06:24:07;100580.03;;;10.67;53.95
63096;BME280;49184;55.596;37.770;2022-09-09T06:26:36;100587.13;;;10.73;53.17
63096;BME280;49184;55.596;37.770;2022-09-09T06:29:04;100584.94;;;10.70;52.93
63096;BME280;49184;55.596;37.770;2022-09-09T06:31:32;100591.72;;;10.77;52.44
63096;BME280;49184;55.596;37.770;2022-09-09T06:34:07;100594.72;;;10.81;51.48
63096;BME280;49184;55.596;37.770;2022-09-09T06:36:37;100577.56;;;10.70;50.80
63096;BME280;49184;55.596;37.770;2022-09-09T06:39:04;100576.19;;;10.73;51.02
63096;BME280;49184;55.596;37.770;2022-09-09T06:41:32;100576.38;;;10.81;50.69
63096;BME280;49184;55.596;37.770;2022-09-09T06:44:00;100556.41;;;10.86;51.43
63096;BME280;49184;55.596;37.770;2022-09-09T06:46:37;100575.72;;;11.00;49.60
63096;BME280;49184;55.596;37.770;2022-09-09T06:49:07;100609.75;;;11.23;50.09
63096;BME280;49184;55.596;37.770;2022-09-09T06:51:36;100542.66;;;10.91;50.40
63096;BME280;49184;55.596;37.770;2022-09-09T06:54:04;100607.91;;;11.47;50.78
63096;BME280;49184;55.596;37.770;2022-09-09T06:56:35;100609.97;;;11.61;49.41
63096;BME280;49184;55.596;37.770;2022-09-09T06:59:07;100600.13;;;11.60;46.82
63096;BME280;49184;55.596;37.770;2022-09-09T07:01:37;100597.78;;;11.48;46.51
63096;BME280;49184;55.596;37.770;2022-09-09T07:04:08;100581.56;;;11.51;46.59
63096;BME280;49184;55.596;37.770;2022-09-09T07:06:41;100583.56;;;11.46;46.55
63096;BME280;49184;55.596;37.770;2022-09-09T07:09:12;100571.25;;;11.43;43.87
63096;BME280;49184;55.596;37.770;2022-09-09T07:11:46;100604.47;;;11.66;44.44
63096;BME280;49184;55.596;37.770;2022-09-09T07:14:14;100576.34;;;11.55;44.99
63096;BME280;49184;55.596;37.770;2022-09-09T07:16:45;100617.06;;;11.96;45.16
63096;BME280;49184;55.596;37.770;2022-09-09T07:19:14;100598.50;;;11.88;45.50
63096;BME280;49184;55.596;37.770;2022-09-09T07:21:42;100579.31;;;11.88;45.97
63096;BME280;49184;55.596;37.770;2022-09-09T07:24:10;100562.88;;;11.88;43.69
63096;BME280;49184;55.596;37.770;2022-09-09T07:26:39;100592.88;;;12.27;44.24
63096;BME280;49184;55.596;37.770;2022-09-09T07:29:08;100590.19;;;12.22;43.73
63096;BME280;49184;55.596;37.770;2022-09-09T07:31:36;100583.88;;;12.21;44.23
63096;BME280;49184;55.596;37.770;2022-09-09T07:34:06;100588.50;;;12.26;43.18
63096;BME280;49184;55.596;37.770;2022-09-09T07:36:34;100638.81;;;12.59;43.98
63096;BME280;49184;55.596;37.770;2022-09-09T07:39:10;100642.50;;;12.50;43.66
63096;BME280;49184;55.596;37.770;2022-09-09T07:41:43;100653.28;;;12.41;42.83
63096;BME280;49184;55.596;37.770;2022-09-09T07:44:16;100614.34;;;11.96;43.32
63096;BME280;49184;55.596;37.770;2022-09-09T07:46:45;100647.94;;;12.07;42.77
63096;BME280;49184;55.596;37.770;2022-09-09T07:49:17;100613.75;;;11.99;42.59
63096;BME280;49184;55.596;37.770;2022-09-09T07:51:46;100641.28;;;12.37;43.92
63096;BME280;49184;55.596;37.770;2022-09-09T07:54:17;100619.56;;;12.40;42.57
63096;BME280;49184;55.596;37.770;2022-09-09T07:56:49;100610.34;;;12.55;43.02
63096;BME280;49184;55.596;37.770;2022-09-09T07:59:16;100639.22;;;12.90;44.14
63096;BME280;49184;55.596;37.770;2022-09-09T08:01:48;100623.84;;;12.70;41.45
63096;BME280;49184;55.596;37.770;2022-09-09T08:04:20;100632.06;;;12.52;41.37
63096;BME280;49184;55.596;37.770;2022-09-09T08:06:49;100656.56;;;12.43;41.41
63096;BME280;49184;55.596;37.770;2022-09-09T08:09:18;100614.00;;;12.03;41.79
63096;BME280;49184;55.596;37.770;2022-09-09T08:11:47;100631.94;;;12.14;42.29
63096;BME280;49184;55.596;37.770;2022-09-09T08:14:13;100610.72;;;12.01;41.38
63096;BME280;49184;55.596;37.770;2022-09-09T08:16:43;100625.00;;;11.97;41.34
63096;BME280;49184;55.596;37.770;2022-09-09T08:19:13;100672.25;;;12.13;41.59
63096;BME280;49184;55.596;37.770;2022-09-09T08:21:42;100635.44;;;11.95;41.86
63096;BME280;49184;55.596;37.770;2022-09-09T08:24:11;100665.16;;;12.36;41.88
63096;BME280;49184;55.596;37.770;2022-09-09T08:26:40;100650.66;;;12.55;40.67
63096;BME280;49184;55.596;37.770;2022-09-09T08:29:12;100646.56;;;12.76;40.96
63096;BME280;49184;55.596;37.770;2022-09-09T08:31:43;100661.63;;;12.98;40.18
63096;BME280;49184;55.596;37.770;2022-09-09T08:34:11;100637.28;;;12.91;40.46
63096;BME280;49184;55.596;37.770;2022-09-09T08:36:38;100661.25;;;12.85;41.10
63096;BME280;49184;55.596;37.770;2022-09-09T08:39:06;100641.09;;;12.52;40.89
63096;BME280;49184;55.596;37.770;2022-09-09T08:56:02;100661.13;;;13.14;39.92
63096;BME280;49184;55.596;37.770;2022-09-09T08:58:45;100659.78;;;13.31;39.89
63096;BME280;49184;55.596;37.770;2022-09-09T09:01:32;100663.72;;;13.44;40.33
63096;BME280;49184;55.596;37.770;2022-09-09T09:12:42;100677.44;;;13.06;41.63
63096;BME280;49184;55.596;37.770;2022-09-09T09:15:23;100625.63;;;12.80;41.19
63096;BME280;49184;55.596;37.770;2022-09-09T09:17:55;100617.78;;;12.74;39.84
63096;BME280;49184;55.596;37.770;2022-09-09T09:20:39;100667.81;;;13.08;39.61
63096;BME280;49184;55.596;37.770;2022-09-09T09:23:16;100648.88;;;13.07;40.68
63096;BME280;49184;55.596;37.770;2022-09-09T09:25:46;100671.03;;;13.34;39.84
63096;BME280;49184;55.596;37.770;2022-09-09T09:28:17;100632.25;;;13.36;39.83
63096;BME280;49184;55.596;37.770;2022-09-09T09:30:59;100668.78;;;13.69;39.16
63096;BME280;49184;55.596;37.770;2022-09-09T09:33:54;100639.81;;;13.77;39.27
63096;BME280;49184;55.596;37.770;2022-09-09T09:36:56;100663.66;;;13.81;40.51
63096;BME280;49184;55.596;37.770;2022-09-09T09:39:29;100642.41;;;13.54;40.37
63096;BME280;49184;55.596;37.770;2022-09-09T09:42:15;100633.56;;;13.01;40.63
63096;BME280;49184;55.596;37.770;2022-09-09T09:44:46;100654.50;;;13.15;42.04
63096;BME280;49184;55.596;37.770;2022-09-09T09:47:21;100639.38;;;12.99;41.72
63096;BME280;49184;55.596;37.770;2022-09-09T09:50:00;100674.59;;;13.11;40.86
63096;BME280;49184;55.596;37.770;2022-09-09T09:52:33;100626.66;;;12.65;40.35
63096;BME280;49184;55.596;37.770;2022-09-09T09:55:04;100630.16;;;12.71;40.07
63096;BME280;49184;55.596;37.770;2022-09-09T09:57:33;100654.06;;;12.89;39.69
63096;BME280;49184;55.596;37.770;2022-09-09T10:00:16;100669.41;;;13.09;38.77
63096;BME280;49184;55.596;37.770;2022-09-09T10:02:50;100650.59;;;13.22;40.17
63096;BME280;49184;55.596;37.770;2022-09-09T10:05:30;100648.88;;;13.45;39.62
63096;BME280;49184;55.596;37.770;2022-09-09T10:13:20;100680.44;;;13.28;41.02
63096;BME280;49184;55.596;37.770;2022-09-09T10:15:56;100674.84;;;13.14;41.31
63096;BME280;49184;55.596;37.770;2022-09-09T10:18:36;100682.13;;;13.24;41.47
63096;BME280;49184;55.596;37.770;2022-09-09T10:32:28;100677.19;;;14.66;39.63
63096;BME280;49184;55.596;37.770;2022-09-09T10:37:58;100669.16;;;14.55;39.48
63096;BME280;49184;55.596;37.770;2022-09-09T10:43:28;100682.03;;;14.14;39.51
63096;BME280;49184;55.596;37.770;2022-09-09T10:46:32;100653.50;;;13.63;38.03
63096;BME280;49184;55.596;37.770;2022-09-09T10:52:52;100681.97;;;13.86;36.76
63096;BME280;49184;55.596;37.770;2022-09-09T10:55:30;100615.88;;;13.77;37.63
63096;BME280;49184;55.596;37.770;2022-09-09T10:58:00;100665.97;;;14.34;37.63
63096;BME280;49184;55.596;37.770;2022-09-09T11:03:02;100618.69;;;14.32;36.39
63096;BME280;49184;55.596;37.770;2022-09-09T11:05:49;100661.94;;;13.99;37.06
63096;BME280;49184;55.596;37.770;2022-09-09T11:08:20;100628.66;;;14.01;37.69
63096;BME280;49184;55.596;37.770;2022-09-09T11:18:42;100658.94;;;14.42;38.38
63096;BME280;49184;55.596;37.770;2022-09-09T11:21:19;100670.22;;;14.13;38.61
63096;BME280;49184;55.596;37.770;2022-09-09T11:23:53;100649.00;;;14.00;39.14
63096;BME280;49184;55.596;37.770;2022-09-09T11:26:39;100685.09;;;14.26;38.56
63096;BME280;49184;55.596;37.770;2022-09-09T11:29:39;100684.69;;;14.19;39.77
63096;BME280;49184;55.596;37.770;2022-09-09T11:40:40;100662.63;;;14.38;39.84
63096;BME280;49184;55.596;37.770;2022-09-09T11:45:40;100638.81;;;14.97;39.10
63096;BME280;49184;55.596;37.770;2022-09-09T11:48:24;100648.25;;;15.41;37.73
63096;BME280;49184;55.596;37.770;2022-09-09T11:51:05;100671.34;;;15.31;36.83
63096;BME280;49184;55.596;37.770;2022-09-09T11:53:34;100626.25;;;14.54;37.82
63096;BME280;49184;55.596;37.770;2022-09-09T11:56:12;100639.19;;;14.54;38.28
63096;BME280;49184;55.596;37.770;2022-09-09T11:58:44;100683.28;;;14.76;37.34
63096;BME280;49184;55.596;37.770;2022-09-09T12:01:44;100675.75;;;14.82;37.74
63096;BME280;49184;55.596;37.770;2022-09-09T12:13:23;100667.69;;;14.86;38.58
63096;BME280;49184;55.596;37.770;2022-09-09T12:16:01;100668.06;;;15.07;37.52
63096;BME280;49184;55.596;37.770;2022-09-09T12:18:37;100658.53;;;15.13;38.18
63096;BME280;49184;55.596;37.770;2022-09-09T12:24:05;100654.38;;;14.65;35.93
63096;BME280;49184;55.596;37.770;2022-09-09T12:26:53;100657.03;;;14.70;36.66
63096;BME280;49184;55.596;37.770;2022-09-09T12:32:26;100659.41;;;14.99;36.02
63096;BME280;49184;55.596;37.770;2022-09-09T12:35:20;100662.28;;;15.31;35.78
63096;BME280;49184;55.596;37.770;2022-09-09T12:37:54;100653.38;;;15.56;34.96
63096;BME280;49184;55.596;37.770;2022-09-09T12:40:33;100648.44;;;15.44;33.59
63096;BME280;49184;55.596;37.770;2022-09-09T12:43:20;100657.97;;;15.02;34.83
63096;BME280;49184;55.596;37.770;2022-09-09T12:45:57;100665.16;;;14.75;35.85
63096;BME280;49184;55.596;37.770;2022-09-09T12:48:37;100660.66;;;14.24;36.22
63096;BME280;49184;55.596;37.770;2022-09-09T12:51:19;100662.50;;;14.43;37.08
63096;BME280;49184;55.596;37.770;2022-09-09T12:53:50;100649.66;;;14.79;37.63
63096;BME280;49184;55.596;37.770;2022-09-09T12:56:23;100658.34;;;15.09;35.50
63096;BME280;49184;55.596;37.770;2022-09-09T12:58:55;100656.06;;;15.25;34.65
63096;BME280;49184;55.596;37.770;2022-09-09T13:01:31;100657.84;;;15.43;35.45
63096;BME280;49184;55.596;37.770;2022-09-09T13:04:02;100656.44;;;15.32;34.54
63096;BME280;49184;55.596;37.770;2022-09-09T13:06:32;100653.53;;;15.51;36.11
63096;BME280;49184;55.596;37.770;2022-09-09T13:09:02;100662.91;;;15.50;33.89
63096;BME280;49184;55.596;37.770;2022-09-09T13:11:41;100660.03;;;15.55;34.28
63096;BME280;49184;55.596;37.770;2022-09-09T13:14:18;100653.88;;;15.58;33.91
63096;BME280;49184;55.596;37.770;2022-09-09T13:16:58;100661.72;;;15.65;34.93
63096;BME280;49184;55.596;37.770;2022-09-09T13:19:35;100655.69;;;15.63;34.16
63096;BME280;49184;55.596;37.770;2022-09-09T13:22:21;100664.28;;;15.39;34.76
63096;BME280;49184;55.596;37.770;2022-09-09T13:27:41;100673.25;;;15.08;37.38
63096;BME280;49184;55.596;37.770;2022-09-09T13:30:42;100659.13;;;14.87;36.42
63096;BME280;49184;55.596;37.770;2022-09-09T13:36:04;100626.97;;;15.10;36.13
63096;BME280;49184;55.596;37.770;2022-09-09T13:38:52;100674.69;;;15.42;34.58
63096;BME280;49184;55.596;37.770;2022-09-09T13:41:24;100645.63;;;15.36;34.79
63096;BME280;49184;55.596;37.770;2022-09-09T13:43:51;100620.94;;;15.31;35.90
63096;BME280;49184;55.596;37.770;2022-09-09T13:46:35;100656.78;;;15.53;35.09
63096;BME280;49184;55.596;37.770;2022-09-09T13:49:27;100671.25;;;15.81;35.23
63096;BME280;49184;55.596;37.770;2022-09-09T13:52:09;100646.16;;;15.83;35.27
63096;BME280;49184;55.596;37.770;2022-09-09T13:54:37;100632.59;;;15.72;34.57
63096;BME280;49184;55.596;37.770;2022-09-09T13:57:29;100659.28;;;15.86;35.30
63096;BME280;49184;55.596;37.770;2022-09-09T13:59:55;100647.06;;;15.33;35.18
63096;BME280;49184;55.596;37.770;2022-09-09T14:02:22;100610.50;;;14.83;36.38
63096;BME280;49184;55.596;37.770;2022-09-09T14:04:50;100656.34;;;15.01;36.58
63096;BME280;49184;55.596;37.770;2022-09-09T14:07:21;100626.59;;;14.89;37.28
63096;BME280;49184;55.596;37.770;2022-09-09T14:09:48;100658.88;;;15.11;38.52
63096;BME280;49184;55.596;37.770;2022-09-09T14:12:16;100651.69;;;15.24;37.40
63096;BME280;49184;55.596;37.770;2022-09-09T14:14:42;100653.22;;;15.16;35.75
63096;BME280;49184;55.596;37.770;2022-09-09T14:17:11;100650.41;;;15.08;35.84
63096;BME280;49184;55.596;37.770;2022-09-09T14:19:57;100657.13;;;15.15;36.50
63096;BME280;49184;55.596;37.770;2022-09-09T14:22:37;100639.81;;;15.01;37.65
63096;BME280;49184;55.596;37.770;2022-09-09T14:25:04;100660.91;;;15.06;37.61
63096;BME280;49184;55.596;37.770;2022-09-09T14:27:32;100624.19;;;14.60;37.58
63096;BME280;49184;55.596;37.770;2022-09-09T14:30:00;100655.19;;;14.66;37.30
63096;BME280;49184;55.596;37.770;2022-09-09T14:32:29;100630.00;;;14.45;38.68
63096;BME280;49184;55.596;37.770;2022-09-09T14:34:58;100617.75;;;14.23;37.77
63096;BME280;49184;55.596;37.770;2022-09-09T14:37:27;100664.56;;;14.37;38.36
63096;BME280;49184;55.596;37.770;2022-09-09T14:39:53;100663.50;;;14.19;38.41
63096;BME280;49184;55.596;37.770;2022-09-09T14:42:21;100628.19;;;13.80;38.99
63096;BME280;49184;55.596;37.770;2022-09-09T14:44:52;100631.47;;;13.82;38.81
63096;BME280;49184;55.596;37.770;2022-09-09T14:47:19;100598.66;;;13.58;39.02
63096;BME280;49184;55.596;37.770;2022-09-09T14:49:45;100602.22;;;13.58;39.26
63096;BME280;49184;55.596;37.770;2022-09-09T14:52:11;100660.81;;;14.00;39.33
63096;BME280;49184;55.596;37.770;2022-09-09T14:54:37;100627.09;;;13.81;39.05
63096;BME280;49184;55.596;37.770;2022-09-09T14:57:03;100642.16;;;13.83;39.66
63096;BME280;49184;55.596;37.770;2022-09-09T14:59:29;100663.06;;;13.84;39.32
63096;BME280;49184;55.596;37.770;2022-09-09T15:01:56;100623.38;;;13.58;39.07
63096;BME280;49184;55.596;37.770;2022-09-09T15:04:23;100620.63;;;13.58;38.92
63096;BME280;49184;55.596;37.770;2022-09-09T15:06:50;100608.97;;;13.47;39.44
63096;BME280;49184;55.596;37.770;2022-09-09T15:09:19;100661.75;;;13.63;38.98
63096;BME280;49184;55.596;37.770;2022-09-09T15:11:45;100640.84;;;13.48;39.55
63096;BME280;49184;55.596;37.770;2022-09-09T15:14:14;100620.75;;;13.34;40.11
63096;BME280;49184;55.596;37.770;2022-09-09T15:16:41;100640.13;;;13.43;39.59
63096;BME280;49184;55.596;37.770;2022-09-09T15:19:07;100661.84;;;13.58;39.70
63096;BME280;49184;55.596;37.770;2022-09-09T15:21:35;100653.25;;;13.46;39.98
63096;BME280;49184;55.596;37.770;2022-09-09T15:24:03;100666.78;;;13.42;40.41
63096;BME280;49184;55.596;37.770;2022-09-09T15:26:30;100653.81;;;13.24;40.38
63096;BME280;49184;55.596;37.770;2022-09-09T15:28:57;100675.06;;;13.18;40.55
63096;BME280;49184;55.596;37.770;2022-09-09T15:31:28;100657.41;;;13.05;40.19
63096;BME280;49184;55.596;37.770;2022-09-09T15:34:00;100672.81;;;13.20;40.84
63096;BME280;49184;55.596;37.770;2022-09-09T15:38:56;100681.25;;;13.29;40.93
63096;BME280;49184;55.596;37.770;2022-09-09T15:41:29;100641.81;;;13.01;40.99
63096;BME280;49184;55.596;37.770;2022-09-09T15:43:57;100651.75;;;12.97;40.66
63096;BME280;49184;55.596;37.770;2022-09-09T15:46:29;100674.25;;;12.99;41.74
63096;BME280;49184;55.596;37.770;2022-09-09T15:48:57;100670.59;;;13.03;42.17